Time;durP1;ratioP1;P1;durP2;ratioP2;P2;SDS_P1;SDS_P2;PMS_P1;PMS_P2;Temp;Humidity;BMP_temperature;BMP_pressure;BME280_temperature;BME280_humidity;BME280_pressure;Samples;Min_cycle;Max_cycle;Signal;HPM_P1;HPM_P2
2021/10/12 00:00:45;;;;;;;26.23;19.50;;;11.90;71.00;;;;;;4976356;28;20031;-49
2021/10/12 00:03:11;;;;;;;26.50;18.55;;;11.90;71.00;;;;;;4976262;28;20478;-49
2021/10/12 00:05:37;;;;;;;27.30;18.77;;;11.90;71.00;;;;;;4975848;28;20031;-49
2021/10/12 00:08:03;;;;;;;27.50;19.58;;;11.90;71.20;;;;;;4976394;28;20054;-49
2021/10/12 00:10:28;;;;;;;24.50;18.58;;;11.90;71.20;;;;;;4976462;28;20502;-49
2021/10/12 00:12:54;;;;;;;25.38;18.30;;;11.90;71.20;;;;;;4976190;28;20031;-49
2021/10/12 00:15:20;;;;;;;23.70;18.17;;;11.90;71.40;;;;;;4980494;28;20048;-49
2021/10/12 00:17:46;;;;;;;23.65;17.13;;;12.00;71.40;;;;;;4995040;28;20061;-49
2021/10/12 00:20:11;;;;;;;25.50;18.30;;;12.00;71.40;;;;;;4994509;28;20529;-49
2021/10/12 00:22:37;;;;;;;28.50;20.08;;;12.00;71.30;;;;;;4978877;28;20487;-49
2021/10/12 00:25:04;;;;;;;27.98;21.55;;;11.90;71.40;;;;;;4978554;28;20390;-52
2021/10/12 00:27:30;;;;;;;26.58;20.20;;;12.00;71.50;;;;;;4995532;28;20474;-50
2021/10/12 00:29:55;;;;;;;27.35;19.50;;;12.00;71.50;;;;;;4995442;28;20022;-51
2021/10/12 00:32:21;;;;;;;26.70;19.10;;;12.00;71.50;;;;;;4983848;28;20031;-50
2021/10/12 00:34:46;;;;;;;28.42;18.58;;;12.00;71.50;;;;;;4995008;28;20033;-50
2021/10/12 00:37:13;;;;;;;28.95;21.05;;;12.00;71.50;;;;;;4985857;28;20031;-50
2021/10/12 00:39:39;;;;;;;26.55;19.88;;;12.00;71.70;;;;;;4980729;28;20052;-50
2021/10/12 00:42:05;;;;;;;26.98;19.40;;;12.00;71.70;;;;;;4988342;28;20125;-50
2021/10/12 00:44:32;;;;;;;24.35;19.15;;;12.00;71.80;;;;;;4975643;28;20058;-50
2021/10/12 00:46:57;;;;;;;26.50;19.27;;;12.00;71.70;;;;;;4992412;28;20505;-50
2021/10/12 00:49:23;;;;;;;26.50;18.58;;;12.00;71.90;;;;;;4994819;28;20084;-50
2021/10/12 00:51:49;;;;;;;25.25;18.42;;;12.00;71.70;;;;;;4994556;28;20087;-50
2021/10/12 00:54:14;;;;;;;28.33;18.63;;;12.00;71.70;;;;;;4994737;28;20438;-50
2021/10/12 00:56:41;;;;;;;26.50;19.52;;;12.00;71.90;;;;;;4994806;28;20069;-50
2021/10/12 00:59:09;;;;;;;24.85;18.55;;;12.00;71.90;;;;;;4980766;28;20039;-50
2021/10/12 01:01:37;;;;;;;25.45;18.88;;;11.90;71.90;;;;;;4975344;28;20435;-50
2021/10/12 01:04:02;;;;;;;26.30;18.70;;;11.90;71.90;;;;;;4975028;28;20073;-50
2021/10/12 01:06:28;;;;;;;27.40;18.98;;;11.90;72.10;;;;;;4975085;28;20054;-50
2021/10/12 01:08:54;;;;;;;25.92;18.50;;;11.90;72.30;;;;;;4974927;28;20042;-50
2021/10/12 01:11:20;;;;;;;27.08;19.27;;;11.90;72.40;;;;;;4974967;28;20027;-50
2021/10/12 01:13:45;;;;;;;29.27;20.20;;;11.90;72.50;;;;;;4974793;28;20019;-50
2021/10/12 01:16:13;;;;;;;25.85;19.73;;;11.90;72.50;;;;;;4985477;28;20084;-50
2021/10/12 01:18:39;;;;;;;26.15;19.58;;;11.90;72.60;;;;;;4994002;28;20041;-52
2021/10/12 01:21:05;;;;;;;24.27;18.65;;;11.90;72.50;;;;;;4994266;28;20497;-51
2021/10/12 01:23:30;;;;;;;28.00;19.42;;;11.90;72.60;;;;;;4994386;28;20479;-50
2021/10/12 01:25:56;;;;;;;29.20;20.65;;;11.90;72.70;;;;;;4994015;28;20026;-52
2021/10/12 01:28:22;;;;;;;29.73;21.67;;;11.90;72.80;;;;;;4994088;28;20105;-50
2021/10/12 01:30:47;;;;;;;29.00;22.23;;;11.80;72.90;;;;;;4994313;28;20077;-50
2021/10/12 01:33:13;;;;;;;27.83;22.05;;;11.80;73.10;;;;;;4976155;28;20743;-50
2021/10/12 01:35:39;;;;;;;34.08;22.33;;;11.80;73.00;;;;;;4994224;28;20037;-52
2021/10/12 01:38:05;;;;;;;29.02;20.85;;;11.80;73.20;;;;;;4981270;28;20430;-49
2021/10/12 01:40:31;;;;;;;30.45;21.92;;;11.80;73.40;;;;;;4986764;28;20052;-50
2021/10/12 01:42:58;;;;;;;31.17;23.30;;;11.80;73.50;;;;;;4994243;28;20537;-50
2021/10/12 01:45:24;;;;;;;34.47;23.70;;;11.80;73.60;;;;;;4993506;28;20038;-50
2021/10/12 01:47:51;;;;;;;27.30;21.33;;;11.80;74.40;;;;;;4993277;28;20034;-51
2021/10/12 01:50:17;;;;;;;29.45;21.17;;;11.80;73.80;;;;;;4993689;28;20037;-51
2021/10/12 01:52:43;;;;;;;26.33;19.95;;;11.80;73.90;;;;;;4993635;28;20026;-52
2021/10/12 01:55:09;;;;;;;30.90;21.65;;;11.80;74.10;;;;;;4993796;28;20425;-50
2021/10/12 01:57:35;;;;;;;28.48;19.75;;;11.80;73.90;;;;;;4993735;28;20089;-52
2021/10/12 02:00:00;;;;;;;31.42;21.67;;;11.80;73.90;;;;;;4993831;28;20022;-51
2021/10/12 02:02:26;;;;;;;28.35;19.80;;;11.80;73.70;;;;;;4993824;28;20034;-50
2021/10/12 02:04:52;;;;;;;24.60;19.27;;;11.80;73.60;;;;;;4993451;28;20037;-52
2021/10/12 02:07:17;;;;;;;28.38;20.33;;;11.90;73.60;;;;;;4979101;28;20031;-50
2021/10/12 02:09:43;;;;;;;26.13;19.85;;;11.90;73.70;;;;;;4974324;28;20231;-50
2021/10/12 02:12:09;;;;;;;26.77;19.50;;;11.90;73.80;;;;;;4974487;28;20038;-52
2021/10/12 02:14:35;;;;;;;28.70;20.23;;;11.90;73.80;;;;;;4974221;28;20403;-49
2021/10/12 02:17:00;;;;;;;26.33;19.42;;;11.90;73.70;;;;;;4974281;28;20023;-49
2021/10/12 02:19:26;;;;;;;25.30;18.75;;;11.90;73.60;;;;;;4974436;28;20026;-49
2021/10/12 02:21:52;;;;;;;25.73;18.30;;;11.90;73.70;;;;;;4973908;28;20054;-49
2021/10/12 02:24:17;;;;;;;24.40;17.27;;;11.90;73.60;;;;;;4974177;28;20023;-50
2021/10/12 02:26:43;;;;;;;29.30;18.95;;;11.90;73.60;;;;;;4992871;28;20512;-49
2021/10/12 02:29:08;;;;;;;28.73;19.80;;;11.90;73.60;;;;;;4996339;28;20483;-49
2021/10/12 02:31:34;;;;;;;28.45;19.23;;;11.90;73.60;;;;;;4997610;28;20022;-50
2021/10/12 02:34:00;;;;;;;30.13;20.17;;;11.90;73.70;;;;;;4997368;28;20030;-49
2021/10/12 02:36:26;;;;;;;28.65;20.42;;;11.80;73.70;;;;;;4997487;28;20057;-49
2021/10/12 02:38:52;;;;;;;28.27;20.92;;;11.80;73.80;;;;;;4984025;28;20055;-51
2021/10/12 02:41:17;;;;;;;25.85;19.60;;;11.80;73.90;;;;;;4977839;28;20030;-53
2021/10/12 02:43:43;;;;;;;26.30;19.55;;;11.80;74.10;;;;;;4993356;28;20038;-50
2021/10/12 02:46:09;;;;;;;26.77;19.63;;;11.80;74.10;;;;;;4996903;28;20041;-49
2021/10/12 02:48:35;;;;;;;25.98;19.17;;;11.80;74.00;;;;;;4997006;28;20026;-50
2021/10/12 02:51:00;;;;;;;30.85;20.58;;;11.90;74.10;;;;;;4997053;28;20022;-51
2021/10/12 02:53:26;;;;;;;22.95;17.50;;;11.80;74.10;;;;;;4988196;28;20030;-49
2021/10/12 02:55:52;;;;;;;25.67;17.00;;;11.80;74.10;;;;;;4977435;28;20038;-50
2021/10/12 02:58:18;;;;;;;22.15;15.93;;;11.80;74.00;;;;;;4977458;28;20407;-52
2021/10/12 03:00:43;;;;;;;20.52;15.88;;;11.80;74.00;;;;;;4977462;28;20027;-49
2021/10/12 03:03:10;;;;;;;20.08;14.30;;;11.80;74.00;;;;;;4977402;28;20027;-50
2021/10/12 03:05:37;;;;;;;13.52;11.18;;;11.80;73.80;;;;;;4977525;28;20471;-49
2021/10/12 03:08:03;;;;;;;14.15;11.43;;;11.80;73.60;;;;;;4977229;28;20027;-49
2021/10/12 03:10:29;;;;;;;14.02;11.25;;;11.80;73.50;;;;;;4984140;28;20084;-49
2021/10/12 03:12:54;;;;;;;12.48;10.85;;;11.80;73.20;;;;;;4996909;28;20022;-50
2021/10/12 03:15:20;;;;;;;14.45;10.82;;;11.80;73.20;;;;;;4996276;28;20046;-50
2021/10/12 03:17:45;;;;;;;15.15;10.98;;;11.80;73.00;;;;;;4996723;28;20057;-49
2021/10/12 03:20:11;;;;;;;17.70;11.70;;;11.80;72.90;;;;;;4996452;28;20023;-50
2021/10/12 03:22:38;;;;;;;14.50;11.48;;;11.80;73.00;;;;;;4979522;28;20022;-49
2021/10/12 03:25:04;;;;;;;14.82;11.27;;;11.70;72.90;;;;;;4996307;28;20030;-50
2021/10/12 03:27:30;;;;;;;16.85;11.95;;;11.70;73.00;;;;;;4983282;28;20447;-50
2021/10/12 03:29:55;;;;;;;15.95;11.57;;;11.70;73.00;;;;;;4977170;28;20057;-50
2021/10/12 03:32:21;;;;;;;14.95;11.10;;;11.60;72.90;;;;;;4981883;28;20033;-49
2021/10/12 03:34:47;;;;;;;14.13;11.73;;;11.60;72.90;;;;;;4995140;28;20521;-50
2021/10/12 03:37:12;;;;;;;16.25;11.60;;;11.50;72.80;;;;;;4995582;28;20065;-49
2021/10/12 03:39:38;;;;;;;16.77;11.68;;;11.50;73.00;;;;;;4977261;28;20376;-50
2021/10/12 03:42:04;;;;;;;16.38;12.25;;;11.40;72.90;;;;;;4976743;28;20035;-49
2021/10/12 03:44:30;;;;;;;16.88;12.70;;;11.30;73.00;;;;;;4976516;28;20066;-49
2021/10/12 03:46:56;;;;;;;15.50;12.00;;;11.30;73.10;;;;;;4991682;28;20400;-52
2021/10/12 03:49:21;;;;;;;17.05;12.55;;;11.20;73.10;;;;;;4996003;28;20553;-50
2021/10/12 03:51:47;;;;;;;15.38;12.10;;;11.20;73.10;;;;;;4995939;28;20105;-50
2021/10/12 03:54:14;;;;;;;18.08;12.30;;;11.20;73.10;;;;;;4996167;28;20019;-50
2021/10/12 03:56:40;;;;;;;16.55;12.20;;;11.20;73.20;;;;;;4995744;28;20526;-50
2021/10/12 03:59:06;;;;;;;19.13;12.50;;;11.20;73.00;;;;;;4989250;28;20075;-50
2021/10/12 04:01:32;;;;;;;16.85;12.68;;;11.20;72.90;;;;;;4975496;28;20027;-50
2021/10/12 04:03:59;;;;;;;16.80;12.43;;;11.20;72.80;;;;;;4976251;28;20034;-52
2021/10/12 04:06:25;;;;;;;16.20;12.57;;;11.20;72.80;;;;;;4976302;28;20465;-50
2021/10/12 04:08:50;;;;;;;16.33;10.80;;;11.20;72.50;;;;;;4976287;28;20118;-51
2021/10/12 04:11:16;;;;;;;14.43;11.60;;;11.20;72.40;;;;;;4976102;28;20475;-50
2021/10/12 04:13:42;;;;;;;14.02;10.30;;;11.20;72.40;;;;;;4976086;28;20019;-50
2021/10/12 04:16:07;;;;;;;14.75;10.43;;;11.20;72.40;;;;;;4986402;28;20034;-50
2021/10/12 04:18:33;;;;;;;14.23;10.65;;;11.20;72.40;;;;;;4975938;28;20498;-50
2021/10/12 04:20:58;;;;;;;12.45;9.88;;;11.20;72.30;;;;;;4975910;28;20038;-50
2021/10/12 04:23:25;;;;;;;13.55;10.50;;;11.20;72.30;;;;;;4975965;28;20113;-51
2021/10/12 04:25:51;;;;;;;15.25;10.23;;;11.20;72.30;;;;;;4976111;28;20035;-50
2021/10/12 04:28:16;;;;;;;13.85;11.05;;;11.20;72.10;;;;;;4975944;28;20034;-50
2021/10/12 04:30:45;;;;;;;15.02;9.98;;;11.20;72.10;;;;;;4975692;28;20360;-50
2021/10/12 04:33:11;;;;;;;13.90;10.30;;;11.20;72.00;;;;;;4981499;28;20029;-50
2021/10/12 04:35:37;;;;;;;14.82;11.35;;;11.20;72.00;;;;;;4980852;28;20038;-51
2021/10/12 04:38:04;;;;;;;13.43;10.43;;;11.20;71.90;;;;;;4975569;28;20038;-50
2021/10/12 04:40:30;;;;;;;14.73;10.65;;;11.20;71.90;;;;;;4975404;28;20054;-51
2021/10/12 04:43:01;;;;;;;14.40;11.55;;;11.20;71.90;;;;;;4975566;28;20031;-50
2021/10/12 04:45:27;;;;;;;13.48;10.88;;;11.20;71.80;;;;;;4980366;28;20382;-50
2021/10/12 04:47:54;;;;;;;15.27;12.07;;;11.30;71.90;;;;;;4994862;28;20069;-50
2021/10/12 04:50:20;;;;;;;15.07;11.32;;;11.30;71.60;;;;;;4977045;28;20382;-50
2021/10/12 04:52:46;;;;;;;14.25;11.02;;;11.30;71.60;;;;;;4976913;28;20034;-50
2021/10/12 04:55:12;;;;;;;16.15;11.90;;;11.30;71.60;;;;;;4975287;28;20127;-50
2021/10/12 04:57:38;;;;;;;13.20;10.70;;;11.30;71.60;;;;;;4975411;28;20086;-51
2021/10/12 05:00:05;;;;;;;15.98;10.45;;;11.40;71.50;;;;;;4974697;28;20069;-51
2021/10/12 05:02:31;;;;;;;15.65;11.32;;;11.40;71.60;;;;;;4989801;28;20027;-54
2021/10/12 05:04:56;;;;;;;14.43;10.35;;;11.40;71.50;;;;;;4983768;28;20121;-50
2021/10/12 05:07:22;;;;;;;12.63;10.55;;;11.40;71.60;;;;;;4991011;28;20030;-51
2021/10/12 05:09:48;;;;;;;14.82;11.68;;;11.50;71.60;;;;;;4979169;28;20026;-51
2021/10/12 05:12:13;;;;;;;14.55;11.35;;;11.60;71.40;;;;;;4992545;28;20109;-50
2021/10/12 05:14:39;;;;;;;14.75;11.23;;;11.60;71.40;;;;;;4988439;28;20026;-50
2021/10/12 05:17:13;;;;;;;14.45;10.68;;;11.70;71.20;;;;;;4993235;28;20426;-51
2021/10/12 05:19:39;;;;;;;12.57;10.55;;;11.70;71.10;;;;;;4984866;28;20101;-51
2021/10/12 05:22:05;;;;;;;16.92;10.63;;;11.80;71.10;;;;;;4983609;28;20455;-51
2021/10/12 05:24:30;;;;;;;15.10;11.52;;;11.80;71.00;;;;;;4982343;28;20027;-49
2021/10/12 05:26:56;;;;;;;16.30;11.57;;;11.80;71.50;;;;;;4985471;28;20026;-49
2021/10/12 05:29:22;;;;;;;15.60;11.55;;;11.90;70.80;;;;;;4988859;28;20085;-49
2021/10/12 05:31:47;;;;;;;14.95;10.68;;;11.90;70.60;;;;;;4982030;28;20030;-52
2021/10/12 05:34:14;;;;;;;14.75;11.07;;;11.90;70.50;;;;;;4985722;28;20109;-51
2021/10/12 05:36:40;;;;;;;15.80;11.68;;;11.90;70.40;;;;;;4989144;28;20558;-51
2021/10/12 05:39:06;;;;;;;16.17;11.60;;;11.90;70.40;;;;;;4982335;28;20053;-49
2021/10/12 05:41:32;;;;;;;14.98;11.63;;;11.90;70.30;;;;;;4986403;28;20038;-50
2021/10/12 05:43:57;;;;;;;16.45;11.88;;;11.80;70.20;;;;;;4981097;28;20101;-49
2021/10/12 05:46:23;;;;;;;15.38;10.80;;;11.80;70.40;;;;;;4984623;28;20037;-53
2021/10/12 05:48:49;;;;;;;18.75;11.63;;;11.80;70.50;;;;;;4980879;28;20121;-49
2021/10/12 05:51:18;;;;;;;14.52;11.38;;;11.80;70.60;;;;;;4977949;28;20034;-50
2021/10/12 05:53:47;;;;;;;13.35;10.60;;;11.80;70.50;;;;;;4980529;28;20563;-52
2021/10/12 05:56:19;;;;;;;16.08;12.40;;;11.80;70.50;;;;;;4985542;28;20045;-49
2021/10/12 05:58:51;;;;;;;16.33;12.30;;;11.80;70.40;;;;;;4985773;28;20119;-51
2021/10/12 06:01:20;;;;;;;15.05;12.20;;;11.80;70.30;;;;;;4982388;28;20034;-50
2021/10/12 06:03:47;;;;;;;14.05;11.20;;;11.90;70.40;;;;;;4981903;28;20610;-49
2021/10/12 06:06:12;;;;;;;18.83;12.75;;;11.90;70.30;;;;;;4988172;28;20069;-50
2021/10/12 06:08:40;;;;;;;15.50;11.90;;;11.90;70.50;;;;;;4971098;28;20505;-49
2021/10/12 06:11:06;;;;;;;15.35;11.25;;;11.90;70.30;;;;;;4983407;28;20026;-50
2021/10/12 06:13:33;;;;;;;13.93;11.18;;;11.90;70.30;;;;;;4981043;28;20030;-50
2021/10/12 06:15:59;;;;;;;15.48;11.07;;;11.90;70.30;;;;;;4981870;28;20030;-51
2021/10/12 06:18:26;;;;;;;15.10;11.50;;;11.90;70.30;;;;;;4987249;28;20375;-51
2021/10/12 06:20:52;;;;;;;16.35;12.82;;;11.90;70.30;;;;;;4983703;28;20442;-52
2021/10/12 06:23:19;;;;;;;15.05;11.45;;;12.00;70.30;;;;;;4978966;28;20043;-53
2021/10/12 06:25:46;;;;;;;14.48;11.10;;;12.00;70.40;;;;;;4982440;28;20070;-50
2021/10/12 06:28:14;;;;;;;16.25;11.68;;;12.00;70.30;;;;;;4983777;28;20034;-52
2021/10/12 06:30:40;;;;;;;15.05;11.68;;;12.10;70.40;;;;;;4982334;28;20023;-51
2021/10/12 06:33:06;;;;;;;16.70;12.05;;;12.20;70.40;;;;;;4982130;28;20042;-51
2021/10/12 06:35:32;;;;;;;14.85;10.95;;;12.20;70.40;;;;;;4982271;28;20536;-51
2021/10/12 06:37:58;;;;;;;14.85;11.85;;;12.20;70.30;;;;;;4976700;28;20041;-51
2021/10/12 06:40:25;;;;;;;15.65;11.43;;;12.30;70.30;;;;;;4979035;28;20422;-53
2021/10/12 06:42:50;;;;;;;14.43;11.50;;;12.40;70.10;;;;;;4978514;28;20038;-52
2021/10/12 06:45:16;;;;;;;14.75;11.02;;;12.40;70.00;;;;;;4981667;28;20041;-51
2021/10/12 06:47:46;;;;;;;16.77;11.82;;;12.50;69.90;;;;;;4978891;28;20026;-52
2021/10/12 06:50:12;;;;;;;17.25;12.20;;;12.50;69.70;;;;;;4983171;28;20121;-53
2021/10/12 06:52:38;;;;;;;13.55;10.50;;;12.60;69.90;;;;;;4980407;28;20114;-52
2021/10/12 06:55:05;;;;;;;15.27;11.65;;;12.60;69.70;;;;;;4975465;28;20394;-52
2021/10/12 06:57:30;;;;;;;15.82;11.40;;;12.60;69.60;;;;;;4976225;28;20158;-53
2021/10/12 06:59:56;;;;;;;15.75;12.40;;;12.60;69.60;;;;;;4976497;28;20022;-52
2021/10/12 07:02:22;;;;;;;16.70;11.52;;;12.70;69.70;;;;;;4955567;28;20060;-51
2021/10/12 07:04:49;;;;;;;14.68;11.32;;;12.70;69.60;;;;;;4971093;28;20038;-52
2021/10/12 07:07:14;;;;;;;14.88;11.32;;;12.70;69.50;;;;;;4967644;28;20034;-52
2021/10/12 07:09:40;;;;;;;15.35;11.40;;;12.80;69.40;;;;;;4974778;28;20380;-54
2021/10/12 07:12:06;;;;;;;15.60;11.20;;;12.80;69.20;;;;;;4972571;28;20077;-55
2021/10/12 07:14:31;;;;;;;13.55;10.43;;;12.90;69.20;;;;;;4971878;28;20030;-55
2021/10/12 07:16:57;;;;;;;18.73;10.88;;;12.90;69.30;;;;;;4969132;28;20505;-51
2021/10/12 07:19:26;;;;;;;14.50;11.18;;;13.00;69.20;;;;;;4975015;28;20072;-51
2021/10/12 07:21:55;;;;;;;14.57;11.13;;;13.00;69.10;;;;;;4969922;28;20105;-54
2021/10/12 07:24:21;;;;;;;15.52;11.68;;;13.10;69.10;;;;;;4969950;28;20031;-54
2021/10/12 07:26:47;;;;;;;16.33;11.07;;;13.10;68.90;;;;;;4969699;28;20065;-54
2021/10/12 07:29:13;;;;;;;16.25;11.18;;;13.10;69.50;;;;;;4972609;28;20057;-51
2021/10/12 07:31:39;;;;;;;14.23;11.75;;;13.20;68.80;;;;;;4974336;28;20022;-52
2021/10/12 07:34:07;;;;;;;14.48;11.75;;;13.20;68.70;;;;;;4972754;28;20057;-54
2021/10/12 07:36:32;;;;;;;14.27;10.90;;;13.20;68.50;;;;;;4971386;28;20038;-55
2021/10/12 07:38:58;;;;;;;14.18;10.70;;;13.30;68.40;;;;;;4972238;28;20049;-53
2021/10/12 07:41:24;;;;;;;14.27;10.75;;;13.30;68.40;;;;;;4958634;28;20034;-53
2021/10/12 07:43:50;;;;;;;13.45;10.50;;;13.30;68.40;;;;;;4959570;28;20475;-54
2021/10/12 07:46:16;;;;;;;17.02;11.23;;;13.30;68.40;;;;;;4966214;28;20038;-51
2021/10/12 07:48:42;;;;;;;16.20;11.32;;;13.30;68.30;;;;;;4970597;28;20637;-54
2021/10/12 07:51:08;;;;;;;13.80;10.43;;;13.40;68.30;;;;;;4969198;28;20030;-51
2021/10/12 07:53:36;;;;;;;15.20;11.45;;;13.40;68.20;;;;;;4955529;28;20026;-54
2021/10/12 07:56:05;;;;;;;13.10;10.60;;;13.50;68.10;;;;;;4969383;28;20129;-52
2021/10/12 07:58:31;;;;;;;15.32;11.25;;;13.50;68.10;;;;;;4967845;28;20042;-55
2021/10/12 08:00:57;;;;;;;16.30;11.52;;;13.60;68.20;;;;;;4964834;28;20621;-54
2021/10/12 08:03:22;;;;;;;16.33;12.38;;;13.60;68.10;;;;;;4966250;28;20034;-52
2021/10/12 08:05:48;;;;;;;14.80;10.98;;;13.60;67.90;;;;;;4964111;28;20089;-53
2021/10/12 08:08:13;;;;;;;17.45;11.93;;;13.70;67.80;;;;;;4967048;28;20085;-53
2021/10/12 08:10:39;;;;;;;13.25;10.82;;;13.70;67.70;;;;;;4965789;28;20030;-54
2021/10/12 08:13:14;;;;;;;13.80;11.52;;;13.80;67.70;;;;;;4965501;28;20089;-53
2021/10/12 08:15:42;;;;;;;15.07;10.98;;;13.80;67.60;;;;;;4959308;28;20775;-53
2021/10/12 08:18:07;;;;;;;15.95;11.82;;;13.80;67.60;;;;;;4963714;28;20034;-52
2021/10/12 08:20:33;;;;;;;17.05;11.25;;;13.90;67.60;;;;;;4967155;28;20042;-54
2021/10/12 08:22:59;;;;;;;14.40;11.32;;;13.90;67.50;;;;;;4959753;28;20034;-54
2021/10/12 08:25:25;;;;;;;17.95;10.95;;;13.90;67.50;;;;;;4969666;28;20034;-53
2021/10/12 08:27:50;;;;;;;16.65;11.27;;;14.00;67.50;;;;;;4961778;28;20035;-53
2021/10/12 08:30:16;;;;;;;14.25;10.68;;;14.00;67.40;;;;;;4968149;28;20541;-51
2021/10/12 08:32:45;;;;;;;14.75;10.75;;;14.10;67.20;;;;;;4970236;28;20030;-54
2021/10/12 08:35:11;;;;;;;13.75;11.07;;;14.10;67.10;;;;;;4965213;28;20117;-52
2021/10/12 08:37:38;;;;;;;16.77;11.63;;;14.10;67.10;;;;;;4967937;28;20041;-53
2021/10/12 08:40:08;;;;;;;17.75;11.02;;;14.20;67.10;;;;;;4950221;28;20469;-54
2021/10/12 08:42:37;;;;;;;14.37;11.13;;;14.20;67.10;;;;;;4973336;28;20123;-54
2021/10/12 08:45:06;;;;;;;14.10;11.05;;;14.20;67.00;;;;;;4972676;28;20034;-53
2021/10/12 08:47:33;;;;;;;16.40;11.90;;;14.30;66.80;;;;;;4966968;28;20088;-53
2021/10/12 08:50:00;;;;;;;13.85;11.65;;;14.40;66.80;;;;;;4965907;28;20715;-55
2021/10/12 08:52:26;;;;;;;15.48;11.32;;;14.40;66.70;;;;;;4964607;28;20035;-54
2021/10/12 08:54:54;;;;;;;15.82;10.75;;;14.50;66.60;;;;;;4963817;28;20058;-53
2021/10/12 08:57:30;;;;;;;15.95;11.63;;;14.50;66.50;;;;;;4962558;28;20124;-52
2021/10/12 08:59:57;;;;;;;15.57;11.57;;;14.60;66.30;;;;;;4963322;28;20026;-54
2021/10/12 09:02:25;;;;;;;17.25;11.63;;;14.60;66.10;;;;;;4969300;28;20045;-55
2021/10/12 09:04:51;;;;;;;14.38;10.90;;;14.60;65.90;;;;;;4973568;28;20117;-54
2021/10/12 09:07:23;;;;;;;16.15;11.93;;;14.60;65.80;;;;;;4972062;28;20608;-52
2021/10/12 09:09:52;;;;;;;16.13;12.70;;;14.60;65.70;;;;;;4966251;28;20454;-53
2021/10/12 09:12:18;;;;;;;18.05;13.48;;;14.60;65.60;;;;;;4965530;28;20133;-53
2021/10/12 09:14:55;;;;;;;17.58;13.73;;;14.70;65.70;;;;;;4970567;28;20088;-53
2021/10/12 09:17:35;;;;;;;18.02;13.02;;;14.70;65.50;;;;;;4965520;28;21153;-54
2021/10/12 09:20:26;;;;;;;17.92;12.95;;;14.60;65.40;;;;;;4969007;28;20034;-55
2021/10/12 09:23:13;;;;;;;18.33;13.43;;;14.70;65.60;;;;;;4962131;28;20042;-52
2021/10/12 09:25:48;;;;;;;16.45;12.18;;;14.70;65.50;;;;;;4963737;28;20053;-53
2021/10/12 09:28:23;;;;;;;18.25;14.35;;;14.60;65.50;;;;;;4960058;28;20117;-55
2021/10/12 09:30:53;;;;;;;17.65;14.50;;;14.60;65.40;;;;;;4968646;28;20030;-55
2021/10/12 09:33:19;;;;;;;16.67;13.40;;;14.60;65.40;;;;;;4962563;28;20043;-53
2021/10/12 09:35:45;;;;;;;19.35;14.20;;;14.60;65.40;;;;;;4974174;28;20025;-52
2021/10/12 09:38:12;;;;;;;19.10;13.75;;;14.60;65.50;;;;;;4965536;28;20091;-54
2021/10/12 09:40:41;;;;;;;19.67;12.45;;;14.60;65.60;;;;;;4963297;28;20046;-54
2021/10/12 09:43:07;;;;;;;18.25;13.65;;;14.60;65.50;;;;;;4966106;28;20568;-52
2021/10/12 09:45:41;;;;;;;17.33;13.02;;;14.60;65.50;;;;;;4963988;28;20037;-51
2021/10/12 09:48:27;;;;;;;17.38;13.70;;;14.60;65.50;;;;;;4958650;28;20058;-54
2021/10/12 09:51:09;;;;;;;21.95;13.48;;;14.70;65.50;;;;;;4963744;28;20802;-51
2021/10/12 09:53:35;;;;;;;15.80;12.75;;;14.70;65.40;;;;;;4958902;28;20031;-53
2021/10/12 09:56:02;;;;;;;17.02;13.55;;;14.70;65.40;;;;;;4968586;28;20031;-53
2021/10/12 09:58:32;;;;;;;17.52;13.82;;;14.70;65.30;;;;;;4966056;28;20504;-53
2021/10/12 10:01:03;;;;;;;17.27;13.45;;;14.70;65.30;;;;;;4960502;28;20062;-54
2021/10/12 10:03:29;;;;;;;15.95;12.75;;;14.70;65.20;;;;;;4968819;28;20124;-52
2021/10/12 10:06:04;;;;;;;18.90;13.07;;;14.80;65.20;;;;;;4969931;28;20050;-54
2021/10/12 10:08:30;;;;;;;17.15;13.50;;;14.80;65.40;;;;;;4970803;28;20033;-51
2021/10/12 10:10:59;;;;;;;18.73;12.98;;;14.80;65.30;;;;;;4973289;28;20608;-51
2021/10/12 10:13:28;;;;;;;15.98;11.82;;;14.80;65.10;;;;;;4967294;28;20180;-55
2021/10/12 10:15:54;;;;;;;15.40;11.73;;;14.80;65.00;;;;;;4973752;28;20540;-52
2021/10/12 10:18:22;;;;;;;14.77;10.68;;;14.90;64.90;;;;;;4972577;28;20383;-54
2021/10/12 10:20:53;;;;;;;15.82;12.10;;;14.90;64.80;;;;;;4962743;28;20070;-53
2021/10/12 10:23:39;;;;;;;;;;;14.90;64.60;;;;;;4962004;28;20034;-53
2021/10/12 10:26:31;;;;;;;15.10;11.18;;;14.90;64.60;;;;;;4952277;28;19914;-53
2021/10/12 10:29:20;;;;;;;12.70;9.60;;;15.00;64.50;;;;;;4965138;28;20371;-53
2021/10/12 10:31:51;;;;;;;12.70;9.95;;;15.00;64.30;;;;;;4969601;28;20027;-52
2021/10/12 10:34:29;;;;;;;15.50;11.80;;;15.00;64.20;;;;;;4970190;28;20041;-55
2021/10/12 10:37:16;;;;;;;14.88;11.27;;;15.10;64.20;;;;;;4971225;28;20026;-52
2021/10/12 10:39:46;;;;;;;11.18;9.95;;;15.10;64.20;;;;;;4985743;28;20041;-52
2021/10/12 10:42:26;;;;;;;13.23;10.40;;;15.10;64.30;;;;;;4988104;28;20034;-52
2021/10/12 10:44:56;;;;;;;11.23;9.18;;;15.10;64.30;;;;;;4992299;28;20185;-56
2021/10/12 10:47:40;;;;;;;10.80;8.13;;;15.10;64.10;;;;;;4997487;28;20038;-56
2021/10/12 10:50:28;;;;;;;9.48;7.57;;;15.20;63.20;;;;;;4993167;28;20122;-55
2021/10/12 10:52:59;;;;;;;10.38;7.88;;;15.20;62.30;;;;;;4982754;28;20591;-56
2021/10/12 10:55:37;;;;;;;10.13;7.88;;;15.20;62.00;;;;;;4986224;28;20029;-55
2021/10/12 10:58:19;;;;;;;12.65;8.88;;;15.30;61.40;;;;;;4985128;28;20037;-53
2021/10/12 11:00:51;;;;;;;12.82;8.80;;;15.30;61.00;;;;;;4989351;28;20765;-56
2021/10/12 11:03:29;;;;;;;12.75;8.90;;;15.40;60.50;;;;;;4987621;28;20093;-55
2021/10/12 11:06:16;;;;;;;11.80;8.95;;;15.40;60.00;;;;;;4993335;28;20034;-56
2021/10/12 11:09:02;;;;;;;13.23;8.85;;;15.40;59.90;;;;;;4987637;28;20129;-56
2021/10/12 11:11:35;;;;;;;12.65;9.18;;;15.40;59.90;;;;;;4994715;28;20029;-56
2021/10/12 11:14:03;;;;;;;10.30;8.52;;;15.40;60.00;;;;;;4986699;28;20089;-56
2021/10/12 11:16:36;;;;;;;12.50;9.38;;;15.50;60.20;;;;;;4990935;28;20096;-53
2021/10/12 11:19:03;;;;;;;10.43;8.02;;;15.50;60.00;;;;;;4978214;28;20036;-54
2021/10/12 11:21:30;;;;;;;12.23;8.55;;;15.50;60.00;;;;;;4983295;28;20029;-55
2021/10/12 11:23:59;;;;;;;11.52;9.00;;;15.50;59.90;;;;;;4990941;28;20033;-55
2021/10/12 11:26:30;;;;;;;11.13;9.10;;;15.40;59.60;;;;;;4995511;28;20682;-54
2021/10/12 11:28:58;;;;;;;10.00;8.27;;;15.40;59.40;;;;;;4991855;28;20385;-52
2021/10/12 11:31:29;;;;;;;13.25;9.05;;;15.40;59.30;;;;;;4988063;28;20096;-54
2021/10/12 11:34:02;;;;;;;12.95;9.60;;;15.40;59.40;;;;;;4992789;28;20481;-51
2021/10/12 11:36:31;;;;;;;11.68;9.30;;;15.40;59.70;;;;;;4995367;28;20045;-54
2021/10/12 11:39:05;;;;;;;12.80;9.23;;;15.40;59.70;;;;;;4984989;28;20042;-51
2021/10/12 11:41:38;;;;;;;12.85;9.05;;;15.40;59.70;;;;;;4977467;28;20057;-52
2021/10/12 11:44:18;;;;;;;12.70;9.70;;;15.40;59.80;;;;;;4980187;28;20738;-52
2021/10/12 11:46:46;;;;;;;14.32;10.02;;;15.40;59.80;;;;;;4970439;28;20038;-51
2021/10/12 11:49:14;;;;;;;11.55;8.75;;;15.40;59.50;;;;;;4966074;28;20054;-52
2021/10/12 11:51:41;;;;;;;11.75;9.57;;;15.50;59.50;;;;;;4960197;28;20026;-54
2021/10/12 11:54:07;;;;;;;11.40;8.68;;;15.50;59.50;;;;;;4962153;28;20441;-53
2021/10/12 11:56:35;;;;;;;14.32;9.15;;;15.50;59.60;;;;;;4967579;28;20390;-52
2021/10/12 11:59:02;;;;;;;13.85;9.90;;;15.50;59.70;;;;;;4966601;28;20040;-54
2021/10/12 12:01:35;;;;;;;11.90;9.75;;;15.50;59.80;;;;;;4967205;28;22811;-53
2021/10/12 12:04:02;;;;;;;10.18;8.68;;;15.50;59.80;;;;;;4970004;28;20034;-54
2021/10/12 12:06:31;;;;;;;13.73;9.90;;;15.50;59.80;;;;;;4969373;28;20565;-52
2021/10/12 12:08:59;;;;;;;14.18;10.35;;;15.50;59.70;;;;;;4971054;28;20714;-54
2021/10/12 12:11:28;;;;;;;13.75;9.95;;;15.50;59.50;;;;;;4966808;28;20046;-52
2021/10/12 12:13:55;;;;;;;13.73;10.13;;;15.40;59.20;;;;;;4970351;28;20561;-51
2021/10/12 12:16:23;;;;;;;13.00;9.98;;;15.30;59.80;;;;;;4972534;28;20034;-54
2021/10/12 12:18:49;;;;;;;15.45;10.52;;;15.30;59.40;;;;;;4958045;28;20519;-54
2021/10/12 12:21:33;;;;;;;13.00;9.98;;;15.20;59.40;;;;;;4960426;28;20794;-54
2021/10/12 12:24:03;;;;;;;16.15;10.82;;;15.20;59.70;;;;;;4964408;28;20034;-53
2021/10/12 12:26:30;;;;;;;14.70;10.05;;;15.00;59.60;;;;;;4943383;28;20034;-54
2021/10/12 12:29:18;;;;;;;14.85;9.35;;;15.00;60.00;;;;;;4966215;28;21839;-52
2021/10/12 12:31:56;;;;;;;11.85;9.50;;;14.90;60.20;;;;;;4968363;28;20085;-54